Time;durP1;ratioP1;P1;durP2;ratioP2;P2;SDS_P1;SDS_P2;PMS_P1;PMS_P2;Temp;Humidity;BMP_temperature;BMP_pressure;BME280_temperature;BME280_humidity;BME280_pressure;Samples;Min_cycle;Max_cycle;Signal;HPM_P1;HPM_P2
2022/08/15 00:00:35;;;;;;;;;;;461.70;2380.80;;;;;;5071942;28;19917;-55
2022/08/15 00:03:01;;;;;;;;;;;461.70;2380.80;;;;;;5072324;28;19912;-55
2022/08/15 00:05:28;;;;;;;;;;;461.70;2380.80;;;;;;5072363;28;19912;-55
2022/08/15 00:07:54;;;;;;;;;;;461.40;2380.80;;;;;;5072311;28;19908;-55
2022/08/15 00:10:21;;;;;;;;;;;461.30;2380.80;;;;;;5072261;28;20410;-54
2022/08/15 00:12:47;;;;;;;;;;;461.30;2380.80;;;;;;5072053;28;20366;-55
2022/08/15 00:15:15;;;;;;;;;;;461.30;2380.80;;;;;;5071944;28;19924;-56
2022/08/15 00:17:41;;;;;;;;;;;461.40;2380.80;;;;;;5071929;28;19999;-54
2022/08/15 00:20:08;;;;;;;;;;;461.40;2380.80;;;;;;5072058;28;19909;-56
2022/08/15 00:22:34;;;;;;;;;;;461.40;2380.80;;;;;;5071904;28;19908;-55
2022/08/15 00:24:59;;;;;;;;;;;461.50;2380.80;;;;;;5072044;28;19919;-56
2022/08/15 00:27:25;;;;;;;;;;;461.50;2380.80;;;;;;5071699;28;19916;-55
2022/08/15 00:29:51;;;;;;;;;;;461.40;2380.80;;;;;;5071707;28;19913;-55
2022/08/15 00:32:19;;;;;;;;;;;461.50;2380.80;;;;;;5071725;28;19919;-56
2022/08/15 00:34:45;;;;;;;;;;;461.50;2380.80;;;;;;5071357;28;20290;-55
2022/08/15 00:37:11;;;;;;;;;;;461.40;2380.80;;;;;;5071998;28;19992;-55
2022/08/15 00:39:37;;;;;;;;;;;461.40;2380.80;;;;;;5071895;28;19961;-55
2022/08/15 00:42:04;;;;;;;;;;;461.30;2380.80;;;;;;5071529;28;19909;-56
2022/08/15 00:44:41;;;;;;;;;;;461.40;2380.80;;;;;;5071689;28;19912;-55
2022/08/15 00:47:08;;;;;;;;;;;461.50;2380.80;;;;;;5071485;28;19954;-55
2022/08/15 00:49:35;;;;;;;;;;;461.50;2380.80;;;;;;5071410;28;19909;-55
2022/08/15 00:52:03;;;;;;;;;;;461.50;2380.80;;;;;;5071737;28;19909;-55
2022/08/15 00:54:34;;;;;;;;;;;461.50;2380.80;;;;;;5071423;28;20420;-55
2022/08/15 00:57:03;;;;;;;;;;;461.50;2380.80;;;;;;5071481;28;19912;-55
2022/08/15 00:59:34;;;;;;;;;;;461.50;2380.80;;;;;;5071339;28;19908;-55
2022/08/15 01:02:01;;;;;;;;;;;461.40;2380.80;;;;;;5071267;28;19928;-55
2022/08/15 01:04:27;;;;;;;;;;;461.40;2380.80;;;;;;5071444;28;19909;-55
2022/08/15 01:06:58;;;;;;;;;;;461.40;2380.80;;;;;;5071320;28;19909;-56
2022/08/15 01:09:24;;;;;;;;;;;461.40;2380.80;;;;;;5071251;28;20038;-55
2022/08/15 01:11:53;;;;;;;;;;;461.30;2380.80;;;;;;5071284;28;19994;-55
2022/08/15 01:14:19;;;;;;;;;;;461.30;2380.80;;;;;;5071019;28;19923;-55
2022/08/15 01:16:45;;;;;;;;;;;461.30;2380.80;;;;;;5070764;28;19908;-56
2022/08/15 01:19:21;;;;;;;;;;;461.20;2380.80;;;;;;5071156;28;20354;-56
2022/08/15 01:21:46;;;;;;;;;;;461.20;2380.80;;;;;;5071184;28;19952;-55
2022/08/15 01:24:19;;;;;;;;;;;461.20;2380.80;;;;;;5070891;28;19947;-56
2022/08/15 01:26:44;;;;;;;;;;;461.20;2380.80;;;;;;5070864;28;19915;-55
2022/08/15 01:29:10;;;;;;;;;;;461.10;2380.80;;;;;;5070967;28;19913;-56
2022/08/15 01:31:36;;;;;;;;;;;461.10;2380.80;;;;;;5070747;28;19913;-55
2022/08/15 01:34:02;;;;;;;;;;;461.10;2380.80;;;;;;5070829;28;20278;-56
2022/08/15 01:36:31;;;;;;;;;;;461.10;2380.80;;;;;;5070985;28;20271;-55
2022/08/15 01:39:09;;;;;;;;;;;461.10;2380.80;;;;;;5071090;28;19939;-55
2022/08/15 01:41:41;;;;;;;;;;;461.10;2380.80;;;;;;5070590;28;19919;-54
2022/08/15 01:44:35;;;;;;;;;;;461.10;2380.80;;;;;;5070918;28;19909;-55
2022/08/15 01:47:23;;;;;;;;;;;461.10;2380.80;;;;;;5069171;28;19916;-55
2022/08/15 01:49:54;;;;;;;;;;;461.10;2380.80;;;;;;5071235;28;19916;-55
2022/08/15 01:52:22;;;;;;;;;;;461.20;2380.80;;;;;;5074989;28;19909;-55
2022/08/15 01:54:49;;;;;;;;;;;461.10;2380.80;;;;;;5074870;28;19938;-56
2022/08/15 01:57:14;;;;;;;;;;;461.00;2380.80;;;;;;5074688;28;19908;-55
2022/08/15 01:59:40;;;;;;;;;;;461.00;2380.80;;;;;;5074488;28;20019;-55
2022/08/15 02:02:07;;;;;;;;;;;461.00;2380.80;;;;;;5074363;28;19925;-54
2022/08/15 02:04:36;;;;;;;;;;;461.00;2380.80;;;;;;5074411;28;19908;-55
2022/08/15 02:07:12;;;;;;;;;;;461.00;2380.80;;;;;;5074370;28;19943;-55
2022/08/15 02:09:41;;;;;;;;;;;461.00;2380.80;;;;;;5074478;28;19912;-55
2022/08/15 02:12:08;;;;;;;;;;;460.80;2380.80;;;;;;5074566;28;19908;-54
2022/08/15 02:14:35;;;;;;;;;;;460.90;2380.80;;;;;;5074151;28;19917;-54
2022/08/15 02:17:02;;;;;;;;;;;460.90;2380.80;;;;;;5074218;28;19909;-56
2022/08/15 02:19:28;;;;;;;;;;;461.00;2380.80;;;;;;5074050;28;20312;-56
2022/08/15 02:21:53;;;;;;;;;;;461.00;2380.80;;;;;;5073847;28;19909;-55
2022/08/15 02:24:20;;;;;;;;;;;461.00;2380.80;;;;;;5074341;28;20005;-55
2022/08/15 02:26:47;;;;;;;;;;;461.00;2380.80;;;;;;5074271;28;20434;-54
2022/08/15 02:29:12;;;;;;;;;;;461.00;2380.80;;;;;;5073986;28;19909;-55
2022/08/15 02:31:39;;;;;;;;;;;461.00;2380.80;;;;;;5073942;28;20282;-55
2022/08/15 02:34:04;;;;;;;;;;;460.90;2380.80;;;;;;5073722;28;19924;-55
2022/08/15 02:36:32;;;;;;;;;;;460.90;2380.80;;;;;;5073994;28;19920;-55
2022/08/15 02:38:58;;;;;;;;;;;460.80;2380.80;;;;;;5074230;28;19940;-55
2022/08/15 02:41:25;;;;;;;;;;;460.80;2380.80;;;;;;5073962;28;19935;-55
2022/08/15 02:43:51;;;;;;;;;;;460.80;2380.80;;;;;;5073595;28;20362;-55
2022/08/15 02:46:17;;;;;;;;;;;460.80;2380.80;;;;;;5073993;28;19962;-56
2022/08/15 02:48:44;;;;;;;;;;;460.80;2380.80;;;;;;5073534;28;19944;-55
2022/08/15 02:51:10;;;;;;;;;;;460.80;2380.80;;;;;;5073845;28;19909;-55
2022/08/15 02:53:36;;;;;;;;;;;460.80;2380.80;;;;;;5073896;28;19955;-56
2022/08/15 02:56:06;;;;;;;;;;;460.80;2380.80;;;;;;5073557;28;19912;-55
2022/08/15 02:58:34;;;;;;;;;;;460.80;2380.80;;;;;;5073599;28;19997;-55
2022/08/15 03:01:00;;;;;;;;;;;460.80;2380.80;;;;;;5072833;28;20289;-55
2022/08/15 03:03:26;;;;;;;;;;;460.80;2380.80;;;;;;5072659;28;19913;-56
2022/08/15 03:05:52;;;;;;;;;;;460.80;2380.80;;;;;;5073454;28;20302;-54
2022/08/15 03:08:17;;;;;;;;;;;460.80;2380.80;;;;;;5073387;28;19915;-56
2022/08/15 03:10:43;;;;;;;;;;;460.80;2380.80;;;;;;5073438;28;20010;-56
2022/08/15 03:13:11;;;;;;;;;;;460.80;2380.80;;;;;;5073237;28;19908;-55
2022/08/15 03:15:42;;;;;;;;;;;460.80;2380.80;;;;;;5073352;28;19927;-53
2022/08/15 03:18:08;;;;;;;;;;;460.80;2380.80;;;;;;5073384;28;19908;-55
2022/08/15 03:20:35;;;;;;;;;;;460.80;2380.80;;;;;;5073100;28;19912;-55
2022/08/15 03:23:00;;;;;;;;;;;460.80;2380.80;;;;;;5073469;28;19944;-54
2022/08/15 03:25:26;;;;;;;;;;;460.80;2380.80;;;;;;5073410;28;19962;-55
2022/08/15 03:27:53;;;;;;;;;;;460.80;2380.80;;;;;;5072886;28;19908;-55
2022/08/15 03:30:18;;;;;;;;;;;460.80;2380.80;;;;;;5072055;28;19912;-54
2022/08/15 03:32:46;;;;;;;;;;;460.90;2380.80;;;;;;5072798;28;19919;-55
2022/08/15 03:35:12;;;;;;;;;;;460.80;2380.80;;;;;;5072410;28;19939;-55
2022/08/15 03:37:38;;;;;;;;;;;460.80;2380.80;;;;;;5072928;28;19961;-54
2022/08/15 03:40:05;;;;;;;;;;;460.80;2380.80;;;;;;5072949;28;19916;-55
2022/08/15 03:42:30;;;;;;;;;;;436.10;2355.20;;;;;;5072760;28;19912;-55
2022/08/15 03:44:56;;;;;;;;;;;460.80;2380.80;;;;;;5072549;28;20002;-55
2022/08/15 03:47:21;;;;;;;;;;;460.80;2380.80;;;;;;5072690;28;19916;-55
2022/08/15 03:49:47;;;;;;;;;;;436.10;2355.20;;;;;;5072744;28;19915;-55
2022/08/15 03:52:13;;;;;;;;;;;436.00;2355.20;;;;;;5072341;28;20363;-55
2022/08/15 03:54:39;;;;;;;;;;;436.00;2355.20;;;;;;5072857;28;20375;-54
2022/08/15 03:57:07;;;;;;;;;;;436.10;2355.20;;;;;;5072481;28;19962;-55
2022/08/15 03:59:33;;;;;;;;;;;436.00;2355.20;;;;;;5072019;28;20359;-55
2022/08/15 04:02:00;;;;;;;;;;;436.10;2355.20;;;;;;5072404;28;20015;-55
2022/08/15 04:04:26;;;;;;;;;;;460.80;2380.80;;;;;;5072034;28;19962;-55
2022/08/15 04:06:52;;;;;;;;;;;460.90;2380.80;;;;;;5072447;28;19908;-56
2022/08/15 04:09:17;;;;;;;;;;;461.10;2380.80;;;;;;5072480;28;19962;-54
2022/08/15 04:11:43;;;;;;;;;;;461.20;2380.80;;;;;;5072240;28;20309;-55
2022/08/15 04:14:09;;;;;;;;;;;461.20;2380.80;;;;;;5071825;28;19920;-55
2022/08/15 04:16:34;;;;;;;;;;;461.30;2380.80;;;;;;5072110;28;19940;-55
2022/08/15 04:19:00;;;;;;;;;;;461.30;2380.80;;;;;;5072146;28;19909;-55
2022/08/15 04:21:26;;;;;;;;;;;461.40;2380.80;;;;;;5071947;28;19938;-55
2022/08/15 04:23:51;;;;;;;;;;;461.40;2380.80;;;;;;5070496;28;19916;-56
2022/08/15 04:26:17;;;;;;;;;;;461.50;2380.80;;;;;;5072229;28;19987;-55
2022/08/15 04:28:43;;;;;;;;;;;461.60;2380.80;;;;;;5071592;28;19915;-55
2022/08/15 04:31:11;;;;;;;;;;;461.70;2380.80;;;;;;5071922;28;19919;-54
2022/08/15 04:33:36;;;;;;;;;;;486.40;2380.80;;;;;;5071770;28;19987;-55
2022/08/15 04:36:02;;;;;;;;;;;486.40;2380.80;;;;;;5071431;28;20331;-55
2022/08/15 04:38:27;;;;;;;;;;;486.50;2380.80;;;;;;5071636;28;19913;-54
2022/08/15 04:40:57;;;;;;;;;;;486.50;2380.80;;;;;;5071463;28;19908;-55
2022/08/15 04:43:22;;;;;;;;;;;486.60;2380.80;;;;;;5071553;28;19909;-55
2022/08/15 04:45:49;;;;;;;;;;;486.80;2380.80;;;;;;5071558;28;19931;-55
2022/08/15 04:48:15;;;;;;;;;;;486.80;2380.80;;;;;;5071094;28;19915;-55
2022/08/15 04:50:42;;;;;;;;;;;486.90;2380.80;;;;;;5071335;28;19953;-55
2022/08/15 04:53:08;;;;;;;;;;;486.90;2380.80;;;;;;5071710;28;19915;-55
2022/08/15 04:55:35;;;;;;;;;;;487.10;2380.80;;;;;;5071153;28;19912;-55
2022/08/15 04:58:01;;;;;;;;;;;487.20;2380.80;;;;;;5071524;28;19959;-55
2022/08/15 05:00:28;;;;;;;;;;;487.30;2380.80;;;;;;5071257;28;19919;-53
2022/08/15 05:03:00;;;;;;;;;;;512.10;2380.80;;;;;;5071039;28;19920;-54
2022/08/15 05:05:27;;;;;;;;;;;512.10;2380.80;;;;;;5069355;28;20366;-56
2022/08/15 05:07:53;;;;;;;;;;;512.30;2380.80;;;;;;5069902;28;19909;-56
2022/08/15 05:10:18;;;;;;;;;;;512.50;2380.80;;;;;;5070560;28;19924;-55
2022/08/15 05:12:44;;;;;;;;;;;512.90;2380.80;;;;;;5071150;28;19917;-55
2022/08/15 05:15:11;;;;;;;;;;;563.60;2432.00;;;;;;5071190;28;19956;-55
2022/08/15 05:17:36;;;;;;;;;;;614.60;2432.00;;;;;;5071188;28;19908;-55
2022/08/15 05:20:03;;;;;;;;;;;665.90;2380.80;;;;;;5070767;28;19959;-56
2022/08/15 05:22:28;;;;;;;;;;;692.00;2099.20;;;;;;5071116;28;19912;-55
2022/08/15 05:24:54;;;;;;;;;;;742.40;1971.20;;;;;;5070203;28;19915;-56
2022/08/15 05:27:19;;;;;;;;;;;691.70;2022.40;;;;;;5071244;28;19919;-55
2022/08/15 05:29:45;;;;;;;;;;;666.20;2124.80;;;;;;5070692;28;19954;-56
2022/08/15 05:32:11;;;;;;;;;;;665.60;2227.20;;;;;;5070957;28;19913;-54
2022/08/15 05:34:36;;;;;;;;;;;717.40;1996.80;;;;;;5070639;28;20034;-55
2022/08/15 05:37:02;;;;;;;;;;;768.50;1843.20;;;;;;5070704;28;19948;-54
2022/08/15 05:39:30;;;;;;;;;;;819.30;1689.60;;;;;;5070861;28;19909;-57
2022/08/15 05:42:05;;;;;;;;;;;844.80;1664.00;;;;;;5070967;28;19939;-55
2022/08/15 05:44:36;;;;;;;;;;;845.50;1587.20;;;;;;5070810;28;19909;-54
2022/08/15 05:47:09;;;;;;;;;;;870.90;1536.00;;;;;;5070763;28;19915;-55
2022/08/15 05:49:50;;;;;;;;;;;871.10;1459.20;;;;;;5070698;28;20442;-56
2022/08/15 05:52:24;;;;;;;;;;;896.20;1459.20;;;;;;5070515;28;19909;-55
2022/08/15 05:55:02;;;;;;;;;;;896.20;1433.60;;;;;;5070850;28;19921;-55
2022/08/15 05:57:32;;;;;;;;;;;921.70;1382.40;;;;;;5070659;28;20286;-54
2022/08/15 06:00:00;;;;;;;;;;;922.20;1356.80;;;;;;5070505;28;19912;-55
2022/08/15 06:02:46;;;;;;;;;;;947.70;1305.60;;;;;;5070471;28;19928;-54
2022/08/15 06:05:17;;;;;;;;;;;947.40;1305.60;;;;;;5069909;28;19959;-55
2022/08/15 06:07:46;;;;;;;;;;;947.70;1305.60;;;;;;5070400;28;19915;-55
2022/08/15 06:10:26;;;;;;;;;;;948.00;1280.00;;;;;;5070455;28;19913;-55
2022/08/15 06:13:15;;;;;;;;;;;973.00;1305.60;;;;;;5070298;28;19954;-56
2022/08/15 06:15:58;;;;;;;;;;;973.30;1280.00;;;;;;5008638;28;20371;-56
2022/08/15 06:18:24;;;;;;;;;;;;;;;;;;5008673;28;19910;-55
2022/08/15 06:21:01;;;;;;;;;;;998.40;1280.00;;;;;;5008734;28;20322;-56
2022/08/15 06:23:32;;;;;;;;;;;998.40;1280.00;;;;;;5008758;28;19909;-56
2022/08/15 06:26:01;;;;;;;;;;;998.90;1254.40;;;;;;5008698;28;19910;-56
2022/08/15 06:28:32;;;;;;;;;;;999.30;1228.80;;;;;;5008660;28;20033;-55
2022/08/15 06:31:04;;;;;;;;;;;1024.60;1203.20;;;;;;5008651;28;20016;-56
2022/08/15 06:33:40;;;;;;;;;;;1024.70;1177.60;;;;;;5008479;28;19923;-56
2022/08/15 06:36:20;;;;;;;;;;;1024.30;1203.20;;;;;;5009130;28;19924;-56
2022/08/15 06:39:01;;;;;;;;;;;1024.00;1203.20;;;;;;5011953;28;19913;-56
2022/08/15 06:41:45;;;;;;;;;;;999.10;1228.80;;;;;;5011725;28;20352;-57
2022/08/15 06:44:11;;;;;;;;;;;999.10;1228.80;;;;;;5012051;28;19914;-57
2022/08/15 06:46:37;;;;;;;;;;;1024.00;1228.80;;;;;;5012297;28;20392;-57
2022/08/15 06:49:05;;;;;;;;;;;1024.30;1203.20;;;;;;5012106;28;19910;-57
2022/08/15 06:51:33;;;;;;;;;;;1049.70;1203.20;;;;;;5013326;28;19917;-56
2022/08/15 06:53:59;;;;;;;;;;;1050.50;1177.60;;;;;;5073862;28;19956;-57
2022/08/15 06:56:35;;;;;;;;;;;1075.70;1126.40;;;;;;5073572;28;19949;-58
2022/08/15 06:59:17;;;;;;;;;;;1075.30;1152.00;;;;;;5073596;28;20290;-57
2022/08/15 07:02:02;;;;;;;;;;;1075.40;1126.40;;;;;;5073189;28;19978;-56
2022/08/15 07:04:46;;;;;;;;;;;1100.80;1126.40;;;;;;5073600;28;19912;-57
2022/08/15 07:07:12;;;;;;;;;;;1101.20;1100.80;;;;;;5073422;28;20275;-57
2022/08/15 07:09:43;;;;;;;;;;;1075.60;1126.40;;;;;;5073437;28;19932;-56
2022/08/15 07:12:15;;;;;;;;;;;1075.30;1126.40;;;;;;5073672;28;19991;-57
2022/08/15 07:15:07;;;;;;;;;;;1075.90;1100.80;;;;;;5073270;28;19920;-58
2022/08/15 07:17:39;;;;;;;;;;;1101.20;1100.80;;;;;;5049607;28;20015;-58
2022/08/15 07:20:06;;;;;;;;;;;1101.40;998.40;;;;;;5072997;28;20278;-58
2022/08/15 07:22:32;;;;;;;;;;;1101.60;998.40;;;;;;5073341;28;19909;-56
2022/08/15 07:24:58;;;;;;;;;;;1126.50;998.40;;;;;;5073350;28;20342;-57
2022/08/15 07:27:28;;;;;;;;;;;1126.70;972.80;;;;;;5072753;28;19940;-59
2022/08/15 07:30:02;;;;;;;;;;;1126.90;972.80;;;;;;5072833;28;20003;-58
2022/08/15 07:32:30;;;;;;;;;;;1152.00;972.80;;;;;;5073065;28;19999;-57
2022/08/15 07:35:14;;;;;;;;;;;1152.00;972.80;;;;;;5072556;28;20008;-57
2022/08/15 07:37:41;;;;;;;;;;;1152.20;972.80;;;;;;5072813;28;20385;-57
2022/08/15 07:40:14;;;;;;;;;;;1152.50;972.80;;;;;;5073018;28;19952;-58
2022/08/15 07:42:41;;;;;;;;;;;1152.50;998.40;;;;;;5072811;28;20279;-57
2022/08/15 07:45:33;;;;;;;;;;;1127.30;998.40;;;;;;5072768;28;19909;-56
2022/08/15 07:48:03;;;;;;;;;;;1126.60;998.40;;;;;;5068956;28;19934;-57
2022/08/15 07:50:32;;;;;;;;;;;1127.30;972.80;;;;;;5072615;28;19944;-58
2022/08/15 07:53:04;;;;;;;;;;;1152.50;921.60;;;;;;5072866;28;19947;-57
2022/08/15 07:55:30;;;;;;;;;;;1177.60;921.60;;;;;;5072534;28;19931;-57
2022/08/15 07:58:02;;;;;;;;;;;1152.90;947.20;;;;;;5072315;28;19908;-58
2022/08/15 08:00:28;;;;;;;;;;;1178.00;921.60;;;;;;5072456;28;19913;-56
2022/08/15 08:02:53;;;;;;;;;;;1178.50;870.40;;;;;;5072457;28;19912;-58
2022/08/15 08:05:21;;;;;;;;;;;1203.20;896.00;;;;;;5072516;28;20373;-57
2022/08/15 08:07:49;;;;;;;;;;;1203.20;896.00;;;;;;5072389;28;19908;-56
2022/08/15 08:10:14;;;;;;;;;;;1178.20;896.00;;;;;;5072028;28;19915;-59
2022/08/15 08:13:00;;;;;;;;;;;1203.20;896.00;;;;;;5072261;28;19916;-57
2022/08/15 08:15:40;;;;;;;;;;;1203.30;870.40;;;;;;5071432;28;19917;-58
2022/08/15 08:18:19;;;;;;;;;;;1178.50;870.40;;;;;;5071977;28;20258;-58
2022/08/15 08:20:56;;;;;;;;;;;1127.30;921.60;;;;;;5071772;28;19916;-58
2022/08/15 08:23:25;;;;;;;;;;;1127.30;921.60;;;;;;5071980;28;19946;-58
2022/08/15 08:25:57;;;;;;;;;;;1152.50;921.60;;;;;;5071876;28;19916;-58
2022/08/15 08:28:43;;;;;;;;;;;1152.40;921.60;;;;;;5071802;28;19931;-59
2022/08/15 08:31:23;;;;;;;;;;;1101.30;972.80;;;;;;5071651;28;19919;-59
2022/08/15 08:34:08;;;;;;;;;;;1101.70;921.60;;;;;;5072007;28;19970;-58
2022/08/15 08:36:48;;;;;;;;;;;1101.50;947.20;;;;;;5071495;28;19913;-58
2022/08/15 08:39:19;;;;;;;;;;;1075.40;972.80;;;;;;5071418;28;20392;-58
2022/08/15 08:41:50;;;;;;;;;;;1024.60;998.40;;;;;;5071381;28;19934;-58
2022/08/15 08:44:23;;;;;;;;;;;998.60;1100.80;;;;;;5071197;28;19908;-57
2022/08/15 08:46:58;;;;;;;;;;;973.30;1100.80;;;;;;5071661;28;19909;-57
2022/08/15 08:49:24;;;;;;;;;;;948.10;1075.20;;;;;;5071576;28;19915;-57
2022/08/15 08:51:52;;;;;;;;;;;922.40;1152.00;;;;;;5071638;28;19912;-57
2022/08/15 08:54:25;;;;;;;;;;;922.20;1152.00;;;;;;5071255;28;20454;-56
2022/08/15 08:56:54;;;;;;;;;;;921.70;1152.00;;;;;;5071395;28;20384;-57
2022/08/15 08:59:31;;;;;;;;;;;896.90;1152.00;;;;;;5070713;28;19970;-57
2022/08/15 09:02:14;;;;;;;;;;;896.90;1177.60;;;;;;5071163;28;19925;-56
2022/08/15 09:04:46;;;;;;;;;;;896.50;1152.00;;;;;;5071220;28;19966;-58
2022/08/15 09:07:15;;;;;;;;;;;871.10;1203.20;;;;;;5071415;28;19908;-56
2022/08/15 09:09:42;;;;;;;;;;;871.10;1203.20;;;;;;5071459;28;19982;-56
2022/08/15 09:14:56;;;;;;;;;;;896.00;1203.20;;;;;;5071108;28;19923;-56
2022/08/15 09:17:23;;;;;;;;;;;871.30;1203.20;;;;;;5070989;28;19953;-56
2022/08/15 09:19:51;;;;;;;;;;;871.10;1228.80;;;;;;5071046;28;19915;-58
2022/08/15 09:22:18;;;;;;;;;;;871.20;1228.80;;;;;;5071255;28;19908;-56
2022/08/15 09:24:43;;;;;;;;;;;871.10;1203.20;;;;;;5070136;28;19916;-58
2022/08/15 09:27:12;;;;;;;;;;;871.10;1203.20;;;;;;5070879;28;20013;-56
2022/08/15 09:29:43;;;;;;;;;;;870.80;1203.20;;;;;;5070860;28;19909;-57
2022/08/15 09:32:27;;;;;;;;;;;870.50;1254.40;;;;;;5071011;28;19948;-57
2022/08/15 09:35:04;;;;;;;;;;;870.60;1228.80;;;;;;5070812;28;19939;-56
2022/08/15 09:37:30;;;;;;;;;;;870.50;1254.40;;;;;;5071044;28;19913;-57
2022/08/15 09:39:58;;;;;;;;;;;870.60;1254.40;;;;;;5070896;28;19912;-56
2022/08/15 09:42:39;;;;;;;;;;;870.50;1254.40;;;;;;5070752;28;19915;-56
2022/08/15 09:45:23;;;;;;;;;;;870.50;1228.80;;;;;;5070592;28;19909;-56
2022/08/15 09:48:03;;;;;;;;;;;845.70;1254.40;;;;;;5070858;28;19909;-56
2022/08/15 09:50:48;;;;;;;;;;;845.50;1280.00;;;;;;5070518;28;20003;-55
2022/08/15 09:53:14;;;;;;;;;;;845.60;1280.00;;;;;;5066511;28;20293;-55
2022/08/15 09:55:44;;;;;;;;;;;845.40;1254.40;;;;;;5070673;28;19917;-55
2022/08/15 09:58:20;;;;;;;;;;;844.90;1280.00;;;;;;5070210;28;19927;-57
2022/08/15 10:00:58;;;;;;;;;;;845.20;1254.40;;;;;;5050375;28;19960;-56
2022/08/15 10:03:26;;;;;;;;;;;820.10;1254.40;;;;;;5050574;28;19947;-57
2022/08/15 10:06:06;;;;;;;;;;;844.90;1280.00;;;;;;5050756;28;19908;-58
2022/08/15 10:09:03;;;;;;;;;;;820.00;1280.00;;;;;;5050622;28;20829;-57
2022/08/15 10:11:50;;;;;;;;;;;844.90;1331.20;;;;;;4990922;28;19910;-56
2022/08/15 10:14:21;;;;;;;;;;;845.10;1331.20;;;;;;4934617;29;19929;-57
2022/08/15 10:16:55;;;;;;;;;;;845.30;1305.60;;;;;;4935163;29;20368;-56
2022/08/15 10:19:32;;;;;;;;;;;845.40;1305.60;;;;;;4935047;29;20028;-57
2022/08/15 10:21:59;;;;;;;;;;;845.40;1305.60;;;;;;4934659;29;19918;-55
2022/08/15 10:24:28;;;;;;;;;;;845.70;1254.40;;;;;;4934881;29;20007;-57
2022/08/15 10:27:09;;;;;;;;;;;845.50;1254.40;;;;;;4934704;29;19911;-56
2022/08/15 10:29:36;;;;;;;;;;;845.20;1280.00;;;;;;4934599;29;19918;-55
2022/08/15 10:32:03;;;;;;;;;;;845.20;1280.00;;;;;;4934656;29;20341;-57
2022/08/15 10:34:37;;;;;;;;;;;820.00;1280.00;;;;;;4934749;29;19919;-58
2022/08/15 10:37:09;;;;;;;;;;;820.10;1254.40;;;;;;4934504;29;19966;-58
2022/08/15 10:39:53;;;;;;;;;;;844.90;1280.00;;;;;;4934229;29;19911;-55
2022/08/15 10:42:24;;;;;;;;;;;819.80;1280.00;;;;;;4934648;29;19907;-55
2022/08/15 10:44:59;;;;;;;;;;;819.90;1280.00;;;;;;4953186;29;19918;-56
2022/08/15 10:47:37;;;;;;;;;;;844.90;1305.60;;;;;;4990847;28;19920;-57
2022/08/15 10:50:14;;;;;;;;;;;819.90;1280.00;;;;;;4995729;28;20271;-55
2022/08/15 10:52:40;;;;;;;;;;;844.90;1331.20;;;;;;5073846;28;19912;-57
2022/08/15 10:55:26;;;;;;;;;;;845.20;1305.60;;;;;;5073423;28;19924;-58
2022/08/15 10:57:59;;;;;;;;;;;845.20;1305.60;;;;;;5073611;28;20003;-56
2022/08/15 11:00:27;;;;;;;;;;;845.20;1305.60;;;;;;5072719;28;19919;-54
2022/08/15 11:02:56;;;;;;;;;;;845.30;1280.00;;;;;;5072678;28;19920;-56
2022/08/15 11:05:24;;;;;;;;;;;845.30;1305.60;;;;;;5073108;28;19912;-55
2022/08/15 11:07:52;;;;;;;;;;;844.90;1305.60;;;;;;5073516;28;19939;-57
2022/08/15 11:10:20;;;;;;;;;;;820.00;1280.00;;;;;;5072699;28;19923;-55
2022/08/15 11:12:48;;;;;;;;;;;844.90;1305.60;;;;;;5072724;28;19936;-57
2022/08/15 11:15:14;;;;;;;;;;;844.90;1305.60;;;;;;5072164;28;19932;-57
2022/08/15 11:17:44;;;;;;;;;;;844.90;1305.60;;;;;;5072990;28;20359;-56
2022/08/15 11:20:16;;;;;;;;;;;845.10;1305.60;;;;;;5072659;28;19923;-57
2022/08/15 11:22:52;;;;;;;;;;;844.90;1305.60;;;;;;5071299;28;19943;-57
2022/08/15 11:25:21;;;;;;;;;;;844.90;1305.60;;;;;;5073044;28;19909;-57
2022/08/15 11:28:04;;;;;;;;;;;845.00;1280.00;;;;;;5072523;28;19913;-56
2022/08/15 11:30:31;;;;;;;;;;;845.20;1280.00;;;;;;5072345;28;20366;-56
2022/08/15 11:33:16;;;;;;;;;;;844.90;1331.20;;;;;;5072630;28;19916;-54
2022/08/15 11:35:41;;;;;;;;;;;820.10;1280.00;;;;;;5073060;28;19923;-55
2022/08/15 11:38:07;;;;;;;;;;;844.90;1305.60;;;;;;5072863;28;19908;-56
2022/08/15 11:40:37;;;;;;;;;;;845.00;1331.20;;;;;;5072383;28;19913;-57
2022/08/15 11:43:03;;;;;;;;;;;845.10;1305.60;;;;;;5072781;28;20007;-56
2022/08/15 11:45:34;;;;;;;;;;;845.20;1305.60;;;;;;5073145;28;19909;-56
2022/08/15 11:48:00;;;;;;;;;;;845.00;1305.60;;;;;;5073098;28;20370;-56
2022/08/15 11:50:39;;;;;;;;;;;845.10;1305.60;;;;;;5072458;28;19908;-58
2022/08/15 11:53:05;;;;;;;;;;;844.90;1305.60;;;;;;5072494;28;19916;-57
2022/08/15 11:55:32;;;;;;;;;;;819.90;1305.60;;;;;;5072750;28;19924;-56
2022/08/15 11:58:23;;;;;;;;;;;819.60;1305.60;;;;;;5072627;28;20358;-58
2022/08/15 12:00:51;;;;;;;;;;;820.00;1305.60;;;;;;5069118;28;19960;-58
2022/08/15 12:03:24;;;;;;;;;;;819.90;1305.60;;;;;;5072384;28;19920;-57
2022/08/15 12:05:52;;;;;;;;;;;820.10;1280.00;;;;;;5072706;28;19912;-55
2022/08/15 12:08:31;;;;;;;;;;;820.00;1254.40;;;;;;5072442;28;20290;-56
2022/08/15 12:11:07;;;;;;;;;;;819.90;1280.00;;;;;;5072144;28;20417;-58
2022/08/15 12:13:33;;;;;;;;;;;820.10;1280.00;;;;;;5071927;28;19940;-55
2022/08/15 12:15:59;;;;;;;;;;;820.00;1305.60;;;;;;5072189;28;19948;-56
2022/08/15 12:18:26;;;;;;;;;;;819.90;1305.60;;;;;;5072191;28;19912;-58
2022/08/15 12:20:54;;;;;;;;;;;820.10;1331.20;;;;;;5071990;28;19920;-54
2022/08/15 12:23:29;;;;;;;;;;;820.10;1331.20;;;;;;5072238;28;19912;-58
2022/08/15 12:25:56;;;;;;;;;;;844.90;1305.60;;;;;;5071851;28;19909;-57
2022/08/15 12:28:22;;;;;;;;;;;820.10;1280.00;;;;;;5072108;28;19926;-58
2022/08/15 12:30:48;;;;;;;;;;;820.00;1280.00;;;;;;5071726;28;20392;-56
2022/08/15 12:33:14;;;;;;;;;;;819.30;1305.60;;;;;;5071707;28;19920;-55
2022/08/15 12:35:41;;;;;;;;;;;819.60;1305.60;;;;;;5071489;28;20003;-54
2022/08/15 12:38:07;;;;;;;;;;;819.80;1356.80;;;;;;5071509;28;19913;-58
2022/08/15 12:40:32;;;;;;;;;;;820.00;1280.00;;;;;;5071294;28;19908;-58
2022/08/15 12:42:58;;;;;;;;;;;820.10;1305.60;;;;;;5071793;28;19908;-58
2022/08/15 12:45:23;;;;;;;;;;;844.80;1356.80;;;;;;5071353;28;20354;-56
2022/08/15 12:47:49;;;;;;;;;;;820.10;1305.60;;;;;;5071726;28;20363;-57
2022/08/15 12:50:15;;;;;;;;;;;819.80;1305.60;;;;;;5070689;28;19923;-57
2022/08/15 12:52:41;;;;;;;;;;;819.70;1331.20;;;;;;5070895;28;19931;-57
2022/08/15 12:55:07;;;;;;;;;;;819.90;1331.20;;;;;;5070903;28;20378;-57
2022/08/15 12:57:33;;;;;;;;;;;820.10;1331.20;;;;;;5071169;28;20408;-58
2022/08/15 12:59:59;;;;;;;;;;;820.10;1331.20;;;;;;5071304;28;19948;-58
2022/08/15 13:02:25;;;;;;;;;;;844.90;1331.20;;;;;;5070580;28;20322;-57
2022/08/15 13:04:52;;;;;;;;;;;844.90;1356.80;;;;;;5071100;28;19995;-55
2022/08/15 13:07:19;;;;;;;;;;;820.00;1280.00;;;;;;5070831;28;19908;-54
2022/08/15 13:09:45;;;;;;;;;;;820.10;1305.60;;;;;;5070716;28;21182;-57
2022/08/15 13:12:11;;;;;;;;;;;820.00;1331.20;;;;;;5071046;28;19913;-57
2022/08/15 13:14:37;;;;;;;;;;;820.10;1305.60;;;;;;5071118;28;20003;-57
2022/08/15 13:17:03;;;;;;;;;;;844.80;1331.20;;;;;;5070615;28;19959;-57
2022/08/15 13:19:32;;;;;;;;;;;844.90;1331.20;;;;;;5069786;28;19919;-56
2022/08/15 13:24:41;;;;;;;;;;;844.80;1305.60;;;;;;5070831;28;19920;-57
2022/08/15 13:27:07;;;;;;;;;;;844.90;1331.20;;;;;;5070949;28;19908;-58
2022/08/15 13:29:34;;;;;;;;;;;844.80;1356.80;;;;;;5069189;28;19913;-57
2022/08/15 13:32:00;;;;;;;;;;;844.90;1331.20;;;;;;5068782;28;19909;-58
2022/08/15 13:34:29;;;;;;;;;;;844.90;1331.20;;;;;;5068587;28;19948;-56
2022/08/15 13:36:56;;;;;;;;;;;844.90;1331.20;;;;;;5068546;28;19912;-57
2022/08/15 13:39:25;;;;;;;;;;;820.10;1331.20;;;;;;5068882;28;20070;-55
2022/08/15 13:41:52;;;;;;;;;;;844.90;1356.80;;;;;;5068208;28;19920;-55
2022/08/15 13:44:18;;;;;;;;;;;845.20;1356.80;;;;;;5068201;28;19908;-58
2022/08/15 13:46:43;;;;;;;;;;;845.20;1331.20;;;;;;5070819;28;20361;-56
2022/08/15 13:49:10;;;;;;;;;;;845.10;1305.60;;;;;;5072978;28;19917;-56
2022/08/15 13:51:41;;;;;;;;;;;844.90;1305.60;;;;;;5072522;28;19916;-55
2022/08/15 13:54:06;;;;;;;;;;;820.10;1331.20;;;;;;5072659;28;19970;-57
2022/08/15 13:56:32;;;;;;;;;;;820.00;1356.80;;;;;;5071952;28;19951;-56
2022/08/15 13:58:58;;;;;;;;;;;820.00;1356.80;;;;;;5077397;28;19936;-55
2022/08/15 14:01:25;;;;;;;;;;;844.80;1356.80;;;;;;5086296;28;19928;-57